sensor_id;sensor_type;location;lat;lon;timestamp;temperature;humidity
42339;DHT22;27993;45.392;10.918;2023-02-15T00:02:17;6.40;99.90
42339;DHT22;27993;45.392;10.918;2023-02-15T00:04:50;6.40;99.90
42339;DHT22;27993;45.392;10.918;2023-02-15T00:07:20;6.40;99.90
42339;DHT22;27993;45.392;10.918;2023-02-15T00:09:51;6.40;99.90
42339;DHT22;27993;45.392;10.918;2023-02-15T00:12:22;6.40;99.90
42339;DHT22;27993;45.392;10.918;2023-02-15T00:14:52;6.40;99.90
42339;DHT22;27993;45.392;10.918;2023-02-15T00:17:23;6.40;99.90
42339;DHT22;27993;45.392;10.918;2023-02-15T00:19:54;6.40;99.90
42339;DHT22;27993;45.392;10.918;2023-02-15T00:22:25;6.40;99.90
42339;DHT22;27993;45.392;10.918;2023-02-15T00:24:56;6.30;99.90
42339;DHT22;27993;45.392;10.918;2023-02-15T00:27:26;6.30;99.90
42339;DHT22;27993;45.392;10.918;2023-02-15T00:29:57;6.30;99.90
42339;DHT22;27993;45.392;10.918;2023-02-15T00:32:28;6.30;99.90
42339;DHT22;27993;45.392;10.918;2023-02-15T00:34:58;6.20;99.90
42339;DHT22;27993;45.392;10.918;2023-02-15T00:37:29;6.20;99.90
42339;DHT22;27993;45.392;10.918;2023-02-15T00:39:59;6.20;99.90
42339;DHT22;27993;45.392;10.918;2023-02-15T00:42:30;6.20;99.90
42339;DHT22;27993;45.392;10.918;2023-02-15T00:45:01;6.20;99.90
42339;DHT22;27993;45.392;10.918;2023-02-15T00:47:32;6.10;99.90
42339;DHT22;27993;45.392;10.918;2023-02-15T00:50:03;6.00;99.90
42339;DHT22;27993;45.392;10.918;2023-02-15T00:52:33;6.00;99.90
42339;DHT22;27993;45.392;10.918;2023-02-15T00:55:04;6.00;99.90
42339;DHT22;27993;45.392;10.918;2023-02-15T00:57:35;6.10;99.90
42339;DHT22;27993;45.392;10.918;2023-02-15T01:00:06;6.10;99.90
42339;DHT22;27993;45.392;10.918;2023-02-15T01:02:37;6.10;99.90
42339;DHT22;27993;45.392;10.918;2023-02-15T01:05:07;5.80;99.90
42339;DHT22;27993;45.392;10.918;2023-02-15T01:07:38;5.70;99.90
42339;DHT22;27993;45.392;10.918;2023-02-15T01:10:09;5.60;99.90
42339;DHT22;27993;45.392;10.918;2023-02-15T01:12:39;5.70;99.90
42339;DHT22;27993;45.392;10.918;2023-02-15T01:15:10;5.90;99.90
42339;DHT22;27993;45.392;10.918;2023-02-15T01:17:41;5.90;99.90
42339;DHT22;27993;45.392;10.918;2023-02-15T01:20:11;6.00;99.90
42339;DHT22;27993;45.392;10.918;2023-02-15T01:22:42;6.00;99.90
42339;DHT22;27993;45.392;10.918;2023-02-15T01:25:13;6.10;99.90
42339;DHT22;27993;45.392;10.918;2023-02-15T01:27:44;6.00;99.90
42339;DHT22;27993;45.392;10.918;2023-02-15T01:30:15;6.10;99.90
42339;DHT22;27993;45.392;10.918;2023-02-15T01:32:46;6.10;99.90
42339;DHT22;27993;45.392;10.918;2023-02-15T01:35:17;6.20;99.90
42339;DHT22;27993;45.392;10.918;2023-02-15T01:37:47;6.20;99.90
42339;DHT22;27993;45.392;10.918;2023-02-15T01:40:19;6.20;99.90
42339;DHT22;27993;45.392;10.918;2023-02-15T01:42:54;6.20;99.90
42339;DHT22;27993;45.392;10.918;2023-02-15T01:45:28;6.20;99.90
42339;DHT22;27993;45.392;10.918;2023-02-15T01:48:20;6.10;99.90
42339;DHT22;27993;45.392;10.918;2023-02-15T01:50:55;6.10;99.90
42339;DHT22;27993;45.392;10.918;2023-02-15T01:53:44;6.10;99.90
42339;DHT22;27993;45.392;10.918;2023-02-15T01:56:25;6.10;99.90
42339;DHT22;27993;45.392;10.918;2023-02-15T01:59:02;6.10;99.90
42339;DHT22;27993;45.392;10.918;2023-02-15T02:01:33;6.10;99.90
42339;DHT22;27993;45.392;10.918;2023-02-15T02:06:44;6.10;99.90
42339;DHT22;27993;45.392;10.918;2023-02-15T02:09:16;6.10;99.90
42339;DHT22;27993;45.392;10.918;2023-02-15T02:11:48;6.10;99.90
42339;DHT22;27993;45.392;10.918;2023-02-15T02:14:18;6.00;99.90
42339;DHT22;27993;45.392;10.918;2023-02-15T02:20:00;6.10;99.90
42339;DHT22;27993;45.392;10.918;2023-02-15T02:22:58;6.10;99.90
42339;DHT22;27993;45.392;10.918;2023-02-15T02:29:11;6.20;99.90
42339;DHT22;27993;45.392;10.918;2023-02-15T02:37:43;6.10;99.90
42339;DHT22;27993;45.392;10.918;2023-02-15T02:43:00;5.70;99.90
42339;DHT22;27993;45.392;10.918;2023-02-15T02:45:39;5.50;99.90
42339;DHT22;27993;45.392;10.918;2023-02-15T02:48:22;5.40;99.90
42339;DHT22;27993;45.392;10.918;2023-02-15T02:50:53;5.10;99.90
42339;DHT22;27993;45.392;10.918;2023-02-15T02:53:24;5.00;99.90
42339;DHT22;27993;45.392;10.918;2023-02-15T02:58:48;5.30;99.90
42339;DHT22;27993;45.392;10.918;2023-02-15T03:04:11;5.00;99.90
42339;DHT22;27993;45.392;10.918;2023-02-15T03:06:58;5.20;99.90
42339;DHT22;27993;45.392;10.918;2023-02-15T03:09:39;5.30;99.90
42339;DHT22;27993;45.392;10.918;2023-02-15T03:12:20;5.40;99.90
42339;DHT22;27993;45.392;10.918;2023-02-15T03:14:55;5.40;99.90
42339;DHT22;27993;45.392;10.918;2023-02-15T03:17:28;5.40;99.90
42339;DHT22;27993;45.392;10.918;2023-02-15T03:20:04;5.50;99.90
42339;DHT22;27993;45.392;10.918;2023-02-15T03:22:49;5.40;99.90
42339;DHT22;27993;45.392;10.918;2023-02-15T03:25:42;5.50;99.90
42339;DHT22;27993;45.392;10.918;2023-02-15T03:28:15;5.50;99.90
42339;DHT22;27993;45.392;10.918;2023-02-15T03:30:51;5.40;99.90
42339;DHT22;27993;45.392;10.918;2023-02-15T03:33:23;5.40;99.90
42339;DHT22;27993;45.392;10.918;2023-02-15T03:36:06;5.50;99.90
42339;DHT22;27993;45.392;10.918;2023-02-15T03:39:04;5.50;99.90
42339;DHT22;27993;45.392;10.918;2023-02-15T03:41:40;5.50;99.90
42339;DHT22;27993;45.392;10.918;2023-02-15T03:44:22;5.40;99.90
42339;DHT22;27993;45.392;10.918;2023-02-15T03:47:12;5.40;99.90
42339;DHT22;27993;45.392;10.918;2023-02-15T03:52:26;5.60;99.90
42339;DHT22;27993;45.392;10.918;2023-02-15T03:54:58;5.70;99.90
42339;DHT22;27993;45.392;10.918;2023-02-15T03:57:29;5.70;99.90
42339;DHT22;27993;45.392;10.918;2023-02-15T04:00:21;5.60;99.90
42339;DHT22;27993;45.392;10.918;2023-02-15T04:03:26;5.60;99.90
42339;DHT22;27993;45.392;10.918;2023-02-15T04:05:59;5.60;99.90
42339;DHT22;27993;45.392;10.918;2023-02-15T04:08:31;5.60;99.90
42339;DHT22;27993;45.392;10.918;2023-02-15T04:11:20;5.60;99.90
42339;DHT22;27993;45.392;10.918;2023-02-15T04:13:51;5.60;99.90
42339;DHT22;27993;45.392;10.918;2023-02-15T04:16:28;5.40;99.90
42339;DHT22;27993;45.392;10.918;2023-02-15T04:18:59;5.40;99.90
42339;DHT22;27993;45.392;10.918;2023-02-15T04:21:48;5.40;99.90
42339;DHT22;27993;45.392;10.918;2023-02-15T04:24:37;5.30;99.90
42339;DHT22;27993;45.392;10.918;2023-02-15T04:27:26;5.30;99.90
42339;DHT22;27993;45.392;10.918;2023-02-15T04:29:57;5.30;99.90
42339;DHT22;27993;45.392;10.918;2023-02-15T04:32:27;5.40;99.90
42339;DHT22;27993;45.392;10.918;2023-02-15T04:34:58;5.40;99.90
42339;DHT22;27993;45.392;10.918;2023-02-15T04:37:28;5.40;99.90
42339;DHT22;27993;45.392;10.918;2023-02-15T04:39:59;5.40;99.90
42339;DHT22;27993;45.392;10.918;2023-02-15T04:42:30;5.40;99.90
42339;DHT22;27993;45.392;10.918;2023-02-15T04:45:01;5.30;99.90
42339;DHT22;27993;45.392;10.918;2023-02-15T04:47:31;5.20;99.90
42339;DHT22;27993;45.392;10.918;2023-02-15T04:50:02;5.20;99.90
42339;DHT22;27993;45.392;10.918;2023-02-15T04:52:33;5.00;99.90
42339;DHT22;27993;45.392;10.918;2023-02-15T04:55:04;5.00;99.90
42339;DHT22;27993;45.392;10.918;2023-02-15T04:57:35;4.90;99.90
42339;DHT22;27993;45.392;10.918;2023-02-15T05:00:06;4.80;99.90
42339;DHT22;27993;45.392;10.918;2023-02-15T05:02:38;4.80;99.90
42339;DHT22;27993;45.392;10.918;2023-02-15T05:05:09;4.80;99.90
42339;DHT22;27993;45.392;10.918;2023-02-15T05:07:43;4.80;99.90
42339;DHT22;27993;45.392;10.918;2023-02-15T05:10:13;4.70;99.90
42339;DHT22;27993;45.392;10.918;2023-02-15T05:12:44;4.60;99.90
42339;DHT22;27993;45.392;10.918;2023-02-15T05:15:15;4.70;99.90
42339;DHT22;27993;45.392;10.918;2023-02-15T05:17:45;4.60;99.90
42339;DHT22;27993;45.392;10.918;2023-02-15T05:20:16;4.50;99.90
42339;DHT22;27993;45.392;10.918;2023-02-15T05:22:47;4.50;99.90
42339;DHT22;27993;45.392;10.918;2023-02-15T05:25:17;4.10;99.90
42339;DHT22;27993;45.392;10.918;2023-02-15T05:28:10;4.00;99.90
42339;DHT22;27993;45.392;10.918;2023-02-15T05:31:00;3.80;99.90
42339;DHT22;27993;45.392;10.918;2023-02-15T05:33:33;4.00;99.90
42339;DHT22;27993;45.392;10.918;2023-02-15T05:36:04;4.20;99.90
42339;DHT22;27993;45.392;10.918;2023-02-15T05:38:35;4.20;99.90
42339;DHT22;27993;45.392;10.918;2023-02-15T05:41:10;4.40;99.90
42339;DHT22;27993;45.392;10.918;2023-02-15T05:43:41;4.40;99.90
42339;DHT22;27993;45.392;10.918;2023-02-15T05:46:12;4.50;99.90
42339;DHT22;27993;45.392;10.918;2023-02-15T05:48:42;4.60;99.90
42339;DHT22;27993;45.392;10.918;2023-02-15T05:51:13;4.60;99.90
42339;DHT22;27993;45.392;10.918;2023-02-15T05:53:45;4.60;99.90
42339;DHT22;27993;45.392;10.918;2023-02-15T05:56:15;4.50;99.90
42339;DHT22;27993;45.392;10.918;2023-02-15T05:58:46;4.50;99.90
42339;DHT22;27993;45.392;10.918;2023-02-15T06:01:18;4.50;99.90
42339;DHT22;27993;45.392;10.918;2023-02-15T06:03:49;4.40;99.90
42339;DHT22;27993;45.392;10.918;2023-02-15T06:06:19;4.40;99.90
42339;DHT22;27993;45.392;10.918;2023-02-15T06:08:50;4.40;99.90
42339;DHT22;27993;45.392;10.918;2023-02-15T06:11:21;4.40;99.90
42339;DHT22;27993;45.392;10.918;2023-02-15T06:13:51;4.30;99.90
42339;DHT22;27993;45.392;10.918;2023-02-15T06:16:22;4.20;99.90
42339;DHT22;27993;45.392;10.918;2023-02-15T06:18:53;4.20;99.90
42339;DHT22;27993;45.392;10.918;2023-02-15T06:21:23;4.00;99.90
42339;DHT22;27993;45.392;10.918;2023-02-15T06:23:54;4.00;99.90
42339;DHT22;27993;45.392;10.918;2023-02-15T06:26:25;3.90;99.90
42339;DHT22;27993;45.392;10.918;2023-02-15T06:28:55;3.40;99.90
42339;DHT22;27993;45.392;10.918;2023-02-15T06:31:26;3.40;99.90
42339;DHT22;27993;45.392;10.918;2023-02-15T06:33:57;3.60;99.90
42339;DHT22;27993;45.392;10.918;2023-02-15T06:36:31;3.80;99.90
42339;DHT22;27993;45.392;10.918;2023-02-15T06:39:02;4.10;99.90
42339;DHT22;27993;45.392;10.918;2023-02-15T06:41:33;4.20;99.90
42339;DHT22;27993;45.392;10.918;2023-02-15T06:44:04;4.30;99.90
42339;DHT22;27993;45.392;10.918;2023-02-15T06:46:35;4.30;99.90
42339;DHT22;27993;45.392;10.918;2023-02-15T06:49:05;4.40;99.90
42339;DHT22;27993;45.392;10.918;2023-02-15T06:51:36;4.70;99.90
42339;DHT22;27993;45.392;10.918;2023-02-15T06:54:06;5.00;99.90
42339;DHT22;27993;45.392;10.918;2023-02-15T06:56:37;5.40;99.90
42339;DHT22;27993;45.392;10.918;2023-02-15T06:59:09;5.70;99.90
42339;DHT22;27993;45.392;10.918;2023-02-15T07:01:39;5.70;99.90
42339;DHT22;27993;45.392;10.918;2023-02-15T07:04:10;6.00;99.90
42339;DHT22;27993;45.392;10.918;2023-02-15T07:06:41;6.20;99.90
42339;DHT22;27993;45.392;10.918;2023-02-15T07:09:11;6.40;99.90
42339;DHT22;27993;45.392;10.918;2023-02-15T07:11:43;6.60;99.90
42339;DHT22;27993;45.392;10.918;2023-02-15T07:14:32;6.90;99.90
42339;DHT22;27993;45.392;10.918;2023-02-15T07:17:03;7.40;99.90
42339;DHT22;27993;45.392;10.918;2023-02-15T07:19:33;7.50;99.90
42339;DHT22;27993;45.392;10.918;2023-02-15T07:22:04;7.90;99.90
42339;DHT22;27993;45.392;10.918;2023-02-15T07:24:35;8.30;99.90
42339;DHT22;27993;45.392;10.918;2023-02-15T07:27:08;8.50;99.90
42339;DHT22;27993;45.392;10.918;2023-02-15T07:29:39;8.40;99.90
42339;DHT22;27993;45.392;10.918;2023-02-15T07:32:10;8.80;99.90
42339;DHT22;27993;45.392;10.918;2023-02-15T07:34:40;9.80;99.90
42339;DHT22;27993;45.392;10.918;2023-02-15T07:37:11;10.30;99.90
42339;DHT22;27993;45.392;10.918;2023-02-15T07:39:42;10.60;99.90
42339;DHT22;27993;45.392;10.918;2023-02-15T07:42:12;11.10;99.90
42339;DHT22;27993;45.392;10.918;2023-02-15T07:44:43;11.30;99.90
42339;DHT22;27993;45.392;10.918;2023-02-15T07:47:14;11.20;99.90
42339;DHT22;27993;45.392;10.918;2023-02-15T07:49:44;11.00;99.90
42339;DHT22;27993;45.392;10.918;2023-02-15T07:52:15;11.40;99.90
42339;DHT22;27993;45.392;10.918;2023-02-15T07:54:46;11.60;99.90
42339;DHT22;27993;45.392;10.918;2023-02-15T07:57:16;11.80;99.90
42339;DHT22;27993;45.392;10.918;2023-02-15T07:59:47;12.40;99.90
42339;DHT22;27993;45.392;10.918;2023-02-15T08:02:17;12.60;99.90
42339;DHT22;27993;45.392;10.918;2023-02-15T08:04:48;13.00;99.90
42339;DHT22;27993;45.392;10.918;2023-02-15T08:07:19;13.30;99.90
42339;DHT22;27993;45.392;10.918;2023-02-15T08:09:49;13.40;99.70
42339;DHT22;27993;45.392;10.918;2023-02-15T08:12:20;13.90;98.90
42339;DHT22;27993;45.392;10.918;2023-02-15T08:14:50;13.90;98.70
42339;DHT22;27993;45.392;10.918;2023-02-15T08:17:21;14.50;98.00
42339;DHT22;27993;45.392;10.918;2023-02-15T08:19:52;14.90;97.40
42339;DHT22;27993;45.392;10.918;2023-02-15T08:22:22;15.10;97.70
42339;DHT22;27993;45.392;10.918;2023-02-15T08:24:53;15.10;97.30
42339;DHT22;27993;45.392;10.918;2023-02-15T08:27:23;15.10;97.10
42339;DHT22;27993;45.392;10.918;2023-02-15T08:29:56;15.10;96.70
42339;DHT22;27993;45.392;10.918;2023-02-15T08:32:27;15.30;96.70
42339;DHT22;27993;45.392;10.918;2023-02-15T08:34:58;15.30;96.80
42339;DHT22;27993;45.392;10.918;2023-02-15T08:37:28;15.20;96.40
42339;DHT22;27993;45.392;10.918;2023-02-15T08:39:59;15.60;95.60
42339;DHT22;27993;45.392;10.918;2023-02-15T08:42:29;15.40;95.40
42339;DHT22;27993;45.392;10.918;2023-02-15T08:45:00;15.40;95.10
42339;DHT22;27993;45.392;10.918;2023-02-15T08:47:31;15.50;95.10
42339;DHT22;27993;45.392;10.918;2023-02-15T08:50:02;16.20;95.50
42339;DHT22;27993;45.392;10.918;2023-02-15T08:52:34;16.40;94.90
42339;DHT22;27993;45.392;10.918;2023-02-15T08:55:05;17.40;94.20
42339;DHT22;27993;45.392;10.918;2023-02-15T08:57:36;17.20;94.30
42339;DHT22;27993;45.392;10.918;2023-02-15T09:00:09;17.10;94.30
42339;DHT22;27993;45.392;10.918;2023-02-15T09:02:39;17.60;93.80
42339;DHT22;27993;45.392;10.918;2023-02-15T09:05:10;16.90;94.10
42339;DHT22;27993;45.392;10.918;2023-02-15T09:07:41;17.40;92.90
42339;DHT22;27993;45.392;10.918;2023-02-15T09:10:11;16.90;93.70
42339;DHT22;27993;45.392;10.918;2023-02-15T09:12:42;16.40;94.10
42339;DHT22;27993;45.392;10.918;2023-02-15T09:15:13;15.70;94.90
42339;DHT22;27993;45.392;10.918;2023-02-15T09:17:44;15.90;95.30
42339;DHT22;27993;45.392;10.918;2023-02-15T09:20:14;16.00;94.90
42339;DHT22;27993;45.392;10.918;2023-02-15T09:22:45;16.80;94.70
42339;DHT22;27993;45.392;10.918;2023-02-15T09:25:16;17.20;94.30
42339;DHT22;27993;45.392;10.918;2023-02-15T09:27:46;17.50;93.40
42339;DHT22;27993;45.392;10.918;2023-02-15T09:30:17;17.80;92.70
42339;DHT22;27993;45.392;10.918;2023-02-15T09:32:48;18.10;92.00
42339;DHT22;27993;45.392;10.918;2023-02-15T09:35:18;18.30;91.40
42339;DHT22;27993;45.392;10.918;2023-02-15T09:37:49;18.20;91.70
42339;DHT22;27993;45.392;10.918;2023-02-15T09:40:19;19.40;91.40
42339;DHT22;27993;45.392;10.918;2023-02-15T09:43:04;19.10;90.60
42339;DHT22;27993;45.392;10.918;2023-02-15T09:49:05;19.10;90.40
42339;DHT22;27993;45.392;10.918;2023-02-15T09:52:06;19.20;89.90
42339;DHT22;27993;45.392;10.918;2023-02-15T09:55:00;19.60;90.00
42339;DHT22;27993;45.392;10.918;2023-02-15T10:00:36;20.20;89.50
42339;DHT22;27993;45.392;10.918;2023-02-15T10:05:53;21.00;87.80
42339;DHT22;27993;45.392;10.918;2023-02-15T10:11:15;23.40;85.40
42339;DHT22;27993;45.392;10.918;2023-02-15T10:14:27;24.00;83.20
42339;DHT22;27993;45.392;10.918;2023-02-15T10:25:29;26.30;73.10
42339;DHT22;27993;45.392;10.918;2023-02-15T10:28:06;26.30;71.70
42339;DHT22;27993;45.392;10.918;2023-02-15T10:30:47;25.60;70.80
42339;DHT22;27993;45.392;10.918;2023-02-15T10:38:59;25.90;70.10
42339;DHT22;27993;45.392;10.918;2023-02-15T10:58:08;26.30;69.40
42339;DHT22;27993;45.392;10.918;2023-02-15T11:00:45;26.80;70.40
42339;DHT22;27993;45.392;10.918;2023-02-15T11:06:09;27.10;68.30
42339;DHT22;27993;45.392;10.918;2023-02-15T11:08:55;27.60;68.20
42339;DHT22;27993;45.392;10.918;2023-02-15T11:11:34;27.80;67.70
42339;DHT22;27993;45.392;10.918;2023-02-15T11:14:33;28.00;67.80
42339;DHT22;27993;45.392;10.918;2023-02-15T11:17:12;28.10;67.00
42339;DHT22;27993;45.392;10.918;2023-02-15T11:22:25;26.20;66.40
42339;DHT22;27993;45.392;10.918;2023-02-15T11:24:58;23.90;67.70
42339;DHT22;27993;45.392;10.918;2023-02-15T11:27:31;22.80;69.10
42339;DHT22;27993;45.392;10.918;2023-02-15T11:30:09;22.40;71.60
42339;DHT22;27993;45.392;10.918;2023-02-15T11:32:44;21.30;72.20
42339;DHT22;27993;45.392;10.918;2023-02-15T11:35:33;20.60;74.80
42339;DHT22;27993;45.392;10.918;2023-02-15T11:38:14;20.30;75.00
42339;DHT22;27993;45.392;10.918;2023-02-15T11:40:54;19.70;75.10
42339;DHT22;27993;45.392;10.918;2023-02-15T11:43:43;19.70;76.50
42339;DHT22;27993;45.392;10.918;2023-02-15T11:46:18;20.30;76.70
42339;DHT22;27993;45.392;10.918;2023-02-15T11:48:50;20.40;74.20
42339;DHT22;27993;45.392;10.918;2023-02-15T11:51:21;20.60;75.80
42339;DHT22;27993;45.392;10.918;2023-02-15T11:53:52;20.70;73.10
42339;DHT22;27993;45.392;10.918;2023-02-15T11:56:25;20.30;74.60
42339;DHT22;27993;45.392;10.918;2023-02-15T11:59:01;20.40;75.10
42339;DHT22;27993;45.392;10.918;2023-02-15T12:01:40;20.20;76.50
42339;DHT22;27993;45.392;10.918;2023-02-15T12:04:22;20.20;76.30
42339;DHT22;27993;45.392;10.918;2023-02-15T12:06:55;20.50;75.20
42339;DHT22;27993;45.392;10.918;2023-02-15T12:12:32;19.80;75.40
42339;DHT22;27993;45.392;10.918;2023-02-15T12:15:06;19.40;76.10
42339;DHT22;27993;45.392;10.918;2023-02-15T12:17:53;19.70;77.30
42339;DHT22;27993;45.392;10.918;2023-02-15T12:20:30;20.10;76.30
42339;DHT22;27993;45.392;10.918;2023-02-15T12:23:04;19.80;75.30
42339;DHT22;27993;45.392;10.918;2023-02-15T12:25:41;19.70;73.40
42339;DHT22;27993;45.392;10.918;2023-02-15T12:28:35;19.20;75.10
42339;DHT22;27993;45.392;10.918;2023-02-15T12:31:23;19.60;75.40
42339;DHT22;27993;45.392;10.918;2023-02-15T12:33:57;20.10;69.50
42339;DHT22;27993;45.392;10.918;2023-02-15T12:36:43;20.70;66.70
42339;DHT22;27993;45.392;10.918;2023-02-15T12:39:19;21.30;66.70
42339;DHT22;27993;45.392;10.918;2023-02-15T12:44:30;22.10;64.60
42339;DHT22;27993;45.392;10.918;2023-02-15T12:50:22;22.30;63.00
42339;DHT22;27993;45.392;10.918;2023-02-15T12:53:18;22.00;62.40
42339;DHT22;27993;45.392;10.918;2023-02-15T12:56:02;21.80;61.90
42339;DHT22;27993;45.392;10.918;2023-02-15T12:58:35;22.00;61.30
42339;DHT22;27993;45.392;10.918;2023-02-15T13:04:03;21.70;61.50
42339;DHT22;27993;45.392;10.918;2023-02-15T13:06:35;21.70;61.60
42339;DHT22;27993;45.392;10.918;2023-02-15T13:09:33;21.50;62.30
42339;DHT22;27993;45.392;10.918;2023-02-15T13:12:15;21.80;61.60
42339;DHT22;27993;45.392;10.918;2023-02-15T13:14:50;22.00;61.00
42339;DHT22;27993;45.392;10.918;2023-02-15T13:17:29;21.90;60.30
42339;DHT22;27993;45.392;10.918;2023-02-15T13:20:04;21.80;61.00
42339;DHT22;27993;45.392;10.918;2023-02-15T13:22:42;22.40;60.90
42339;DHT22;27993;45.392;10.918;2023-02-15T13:25:22;22.00;60.10
42339;DHT22;27993;45.392;10.918;2023-02-15T13:28:00;22.00;60.20
42339;DHT22;27993;45.392;10.918;2023-02-15T13:30:36;21.80;61.10
42339;DHT22;27993;45.392;10.918;2023-02-15T13:33:32;22.00;60.70
42339;DHT22;27993;45.392;10.918;2023-02-15T13:52:51;21.20;61.70
42339;DHT22;27993;45.392;10.918;2023-02-15T13:55:26;20.40;61.60
42339;DHT22;27993;45.392;10.918;2023-02-15T14:09:21;19.90;68.80
42339;DHT22;27993;45.392;10.918;2023-02-15T14:17:37;19.40;72.70
42339;DHT22;27993;45.392;10.918;2023-02-15T14:20:23;19.20;73.30
42339;DHT22;27993;45.392;10.918;2023-02-15T14:25:35;19.10;73.40
42339;DHT22;27993;45.392;10.918;2023-02-15T14:28:19;19.00;73.00
42339;DHT22;27993;45.392;10.918;2023-02-15T14:30:54;18.90;73.70
42339;DHT22;27993;45.392;10.918;2023-02-15T14:33:28;18.90;74.80
42339;DHT22;27993;45.392;10.918;2023-02-15T14:36:01;18.80;75.00
42339;DHT22;27993;45.392;10.918;2023-02-15T14:42:07;18.80;76.00
42339;DHT22;27993;45.392;10.918;2023-02-15T14:45:12;18.80;76.20
42339;DHT22;27993;45.392;10.918;2023-02-15T14:47:55;18.60;76.40
42339;DHT22;27993;45.392;10.918;2023-02-15T14:56:16;18.40;77.40
42339;DHT22;27993;45.392;10.918;2023-02-15T15:01:31;18.30;78.40
42339;DHT22;27993;45.392;10.918;2023-02-15T15:04:14;18.30;78.60
42339;DHT22;27993;45.392;10.918;2023-02-15T15:15:03;18.10;79.00
42339;DHT22;27993;45.392;10.918;2023-02-15T15:20:12;18.00;79.10
42339;DHT22;27993;45.392;10.918;2023-02-15T15:22:48;17.90;79.20
42339;DHT22;27993;45.392;10.918;2023-02-15T15:28:06;17.70;79.60
42339;DHT22;27993;45.392;10.918;2023-02-15T15:36:34;17.60;80.90
42339;DHT22;27993;45.392;10.918;2023-02-15T15:50:39;17.20;82.40
42339;DHT22;27993;45.392;10.918;2023-02-15T15:53:20;17.00;83.80
42339;DHT22;27993;45.392;10.918;2023-02-15T15:55:55;16.90;84.00
42339;DHT22;27993;45.392;10.918;2023-02-15T15:58:27;16.80;84.40
42339;DHT22;27993;45.392;10.918;2023-02-15T16:01:02;16.80;84.30
42339;DHT22;27993;45.392;10.918;2023-02-15T16:03:34;16.70;84.80
42339;DHT22;27993;45.392;10.918;2023-02-15T16:06:05;16.70;85.70
42339;DHT22;27993;45.392;10.918;2023-02-15T16:08:38;16.50;85.40
42339;DHT22;27993;45.392;10.918;2023-02-15T16:11:20;16.40;85.80
42339;DHT22;27993;45.392;10.918;2023-02-15T16:13:53;16.30;86.60
42339;DHT22;27993;45.392;10.918;2023-02-15T16:16:29;16.20;86.90
42339;DHT22;27993;45.392;10.918;2023-02-15T16:19:00;16.20;86.50
42339;DHT22;27993;45.392;10.918;2023-02-15T16:21:35;16.20;86.80
42339;DHT22;27993;45.392;10.918;2023-02-15T16:24:21;16.10;87.00
42339;DHT22;27993;45.392;10.918;2023-02-15T16:27:12;16.00;87.80
42339;DHT22;27993;45.392;10.918;2023-02-15T16:29:45;15.90;88.50
42339;DHT22;27993;45.392;10.918;2023-02-15T16:34:59;15.70;88.70
42339;DHT22;27993;45.392;10.918;2023-02-15T16:37:34;15.60;89.80
42339;DHT22;27993;45.392;10.918;2023-02-15T16:40:05;15.50;90.10
42339;DHT22;27993;45.392;10.918;2023-02-15T16:42:36;15.40;90.30
42339;DHT22;27993;45.392;10.918;2023-02-15T16:45:12;15.30;90.60
42339;DHT22;27993;45.392;10.918;2023-02-15T16:47:46;15.10;90.70
42339;DHT22;27993;45.392;10.918;2023-02-15T16:50:21;15.00;91.10
42339;DHT22;27993;45.392;10.918;2023-02-15T16:52:53;14.90;91.40
42339;DHT22;27993;45.392;10.918;2023-02-15T16:55:30;14.80;91.70
42339;DHT22;27993;45.392;10.918;2023-02-15T16:58:06;14.70;91.90
42339;DHT22;27993;45.392;10.918;2023-02-15T17:00:39;14.60;92.40
42339;DHT22;27993;45.392;10.918;2023-02-15T17:08:27;14.40;92.70
42339;DHT22;27993;45.392;10.918;2023-02-15T17:13:29;14.20;92.90
42339;DHT22;27993;45.392;10.918;2023-02-15T17:21:17;13.10;94.00
42339;DHT22;27993;45.392;10.918;2023-02-15T17:23:50;12.30;94.90
42339;DHT22;27993;45.392;10.918;2023-02-15T17:26:23;12.50;95.30
42339;DHT22;27993;45.392;10.918;2023-02-15T17:31:48;12.80;95.20
42339;DHT22;27993;45.392;10.918;2023-02-15T17:37:27;12.90;95.30
42339;DHT22;27993;45.392;10.918;2023-02-15T17:39:59;12.80;95.30
42339;DHT22;27993;45.392;10.918;2023-02-15T17:42:30;12.70;95.50
42339;DHT22;27993;45.392;10.918;2023-02-15T17:45:01;12.70;95.70
42339;DHT22;27993;45.392;10.918;2023-02-15T17:47:31;12.70;95.90
42339;DHT22;27993;45.392;10.918;2023-02-15T17:50:03;12.70;95.90
42339;DHT22;27993;45.392;10.918;2023-02-15T17:52:36;12.70;96.00
42339;DHT22;27993;45.392;10.918;2023-02-15T17:55:16;12.80;96.00
42339;DHT22;27993;45.392;10.918;2023-02-15T17:58:11;12.80;96.10
42339;DHT22;27993;45.392;10.918;2023-02-15T18:00:51;12.80;96.20
42339;DHT22;27993;45.392;10.918;2023-02-15T18:03:46;12.80;96.20
42339;DHT22;27993;45.392;10.918;2023-02-15T18:06:39;12.80;96.20
42339;DHT22;27993;45.392;10.918;2023-02-15T18:09:29;12.80;96.20
42339;DHT22;27993;45.392;10.918;2023-02-15T18:12:23;12.70;96.20
42339;DHT22;27993;45.392;10.918;2023-02-15T18:14:55;12.70;96.40
42339;DHT22;27993;45.392;10.918;2023-02-15T18:17:31;12.60;96.50
42339;DHT22;27993;45.392;10.918;2023-02-15T18:20:06;12.60;96.70
42339;DHT22;27993;45.392;10.918;2023-02-15T18:22:37;12.70;96.70
42339;DHT22;27993;45.392;10.918;2023-02-15T18:25:16;12.60;97.00
42339;DHT22;27993;45.392;10.918;2023-02-15T18:27:47;12.60;96.90
42339;DHT22;27993;45.392;10.918;2023-02-15T18:30:20;12.50;97.20
42339;DHT22;27993;45.392;10.918;2023-02-15T18:32:53;12.50;97.30
42339;DHT22;27993;45.392;10.918;2023-02-15T18:35:29;12.40;97.80
42339;DHT22;27993;45.392;10.918;2023-02-15T18:38:01;12.40;97.60
42339;DHT22;27993;45.392;10.918;2023-02-15T18:40:32;12.10;98.10
42339;DHT22;27993;45.392;10.918;2023-02-15T18:43:02;12.00;98.30
42339;DHT22;27993;45.392;10.918;2023-02-15T18:45:33;11.80;98.60
42339;DHT22;27993;45.392;10.918;2023-02-15T18:48:05;11.90;98.60
42339;DHT22;27993;45.392;10.918;2023-02-15T18:50:39;11.90;98.50
42339;DHT22;27993;45.392;10.918;2023-02-15T18:53:19;11.70;98.90
42339;DHT22;27993;45.392;10.918;2023-02-15T18:55:50;11.70;99.20
42339;DHT22;27993;45.392;10.918;2023-02-15T18:58:21;11.80;99.30
42339;DHT22;27993;45.392;10.918;2023-02-15T19:00:57;11.80;99.20
42339;DHT22;27993;45.392;10.918;2023-02-15T19:03:30;11.80;99.20
42339;DHT22;27993;45.392;10.918;2023-02-15T19:06:00;11.80;99.20
42339;DHT22;27993;45.392;10.918;2023-02-15T19:08:33;11.70;99.40
42339;DHT22;27993;45.392;10.918;2023-02-15T19:11:05;11.60;99.70
42339;DHT22;27993;45.392;10.918;2023-02-15T19:13:35;11.50;99.80
42339;DHT22;27993;45.392;10.918;2023-02-15T19:16:07;11.50;99.90
42339;DHT22;27993;45.392;10.918;2023-02-15T19:18:38;11.40;99.90